sensor_id;sensor_type;location;lat;lon;timestamp;pressure;altitude;pressure_sealevel;temperature;humidity
4392;BME280;2210;51.938;8.488;2024-03-23T00:55:13;99840.50;;;7.83;100.00
4392;BME280;2210;51.938;8.488;2024-03-23T00:59:14;99839.41;;;7.72;100.00
4392;BME280;2210;51.938;8.488;2024-03-23T01:03:17;99829.63;;;7.76;100.00
4392;BME280;2210;51.938;8.488;2024-03-23T01:07:17;99825.69;;;7.72;100.00
4392;BME280;2210;51.938;8.488;2024-03-23T01:11:17;99828.06;;;7.69;100.00
4392;BME280;2210;51.938;8.488;2024-03-23T01:15:17;99817.59;;;7.78;100.00
4392;BME280;2210;51.938;8.488;2024-03-23T01:19:18;99819.69;;;7.64;100.00
4392;BME280;2210;51.938;8.488;2024-03-23T01:23:18;99811.34;;;7.70;100.00
4392;BME280;2210;51.938;8.488;2024-03-23T01:27:18;99801.47;;;7.69;100.00
4392;BME280;2210;51.938;8.488;2024-03-23T01:31:18;99798.59;;;7.64;100.00
4392;BME280;2210;51.938;8.488;2024-03-23T01:35:19;99788.44;;;7.65;100.00
4392;BME280;2210;51.938;8.488;2024-03-23T01:39:19;99788.34;;;7.71;100.00
4392;BME280;2210;51.938;8.488;2024-03-23T01:43:19;99785.00;;;7.69;100.00
4392;BME280;2210;51.938;8.488;2024-03-23T01:47:20;99775.81;;;7.75;100.00
4392;BME280;2210;51.938;8.488;2024-03-23T01:51:20;99766.50;;;7.53;100.00
4392;BME280;2210;51.938;8.488;2024-03-23T01:55:20;99761.72;;;7.60;100.00
4392;BME280;2210;51.938;8.488;2024-03-23T01:59:21;99762.06;;;7.64;100.00
4392;BME280;2210;51.938;8.488;2024-03-23T02:03:25;99760.88;;;7.59;100.00
4392;BME280;2210;51.938;8.488;2024-03-23T02:07:26;99760.16;;;7.52;100.00
4392;BME280;2210;51.938;8.488;2024-03-23T02:11:26;99748.13;;;7.53;100.00
4392;BME280;2210;51.938;8.488;2024-03-23T02:15:26;99732.50;;;7.42;100.00
4392;BME280;2210;51.938;8.488;2024-03-23T02:19:26;99733.31;;;7.42;100.00
4392;BME280;2210;51.938;8.488;2024-03-23T02:23:27;99747.16;;;7.48;100.00
4392;BME280;2210;51.938;8.488;2024-03-23T02:27:27;99752.31;;;7.56;100.00
4392;BME280;2210;51.938;8.488;2024-03-23T02:31:27;99732.00;;;7.33;100.00
4392;BME280;2210;51.938;8.488;2024-03-23T02:35:28;99735.09;;;7.37;100.00
4392;BME280;2210;51.938;8.488;2024-03-23T02:39:28;99739.50;;;7.26;100.00
4392;BME280;2210;51.938;8.488;2024-03-23T02:43:28;99735.34;;;7.35;100.00
4392;BME280;2210;51.938;8.488;2024-03-23T02:47:29;99734.00;;;7.38;100.00
4392;BME280;2210;51.938;8.488;2024-03-23T02:51:29;99731.72;;;7.23;100.00
4392;BME280;2210;51.938;8.488;2024-03-23T02:55:29;99704.78;;;7.20;100.00
4392;BME280;2210;51.938;8.488;2024-03-23T02:59:29;99710.88;;;7.22;100.00
4392;BME280;2210;51.938;8.488;2024-03-23T03:03:29;99716.13;;;7.23;100.00
4392;BME280;2210;51.938;8.488;2024-03-23T03:07:30;99703.25;;;7.24;100.00
4392;BME280;2210;51.938;8.488;2024-03-23T03:11:34;99707.03;;;7.23;100.00
4392;BME280;2210;51.938;8.488;2024-03-23T03:15:34;99703.09;;;7.19;100.00
4392;BME280;2210;51.938;8.488;2024-03-23T03:23:45;99707.91;;;7.23;100.00
4392;BME280;2210;51.938;8.488;2024-03-23T03:27:48;99703.72;;;7.21;100.00
4392;BME280;2210;51.938;8.488;2024-03-23T03:31:49;99695.50;;;7.21;100.00
4392;BME280;2210;51.938;8.488;2024-03-23T03:35:50;99690.38;;;7.13;100.00
4392;BME280;2210;51.938;8.488;2024-03-23T03:39:51;99691.66;;;7.10;100.00
4392;BME280;2210;51.938;8.488;2024-03-23T03:43:55;99699.66;;;7.12;100.00
4392;BME280;2210;51.938;8.488;2024-03-23T03:48:05;99707.50;;;7.08;100.00
4392;BME280;2210;51.938;8.488;2024-03-23T03:52:05;99696.28;;;6.98;100.00
4392;BME280;2210;51.938;8.488;2024-03-23T03:56:06;99692.59;;;6.92;100.00
4392;BME280;2210;51.938;8.488;2024-03-23T04:00:10;99694.03;;;6.95;100.00
4392;BME280;2210;51.938;8.488;2024-03-23T04:04:11;99688.63;;;6.88;100.00
4392;BME280;2210;51.938;8.488;2024-03-23T04:08:17;99681.97;;;6.84;100.00
4392;BME280;2210;51.938;8.488;2024-03-23T04:12:18;99674.31;;;6.86;100.00
4392;BME280;2210;51.938;8.488;2024-03-23T04:16:29;99683.03;;;6.83;100.00
4392;BME280;2210;51.938;8.488;2024-03-23T04:20:33;99697.19;;;6.80;100.00
4392;BME280;2210;51.938;8.488;2024-03-23T04:24:33;99693.25;;;6.75;100.00
4392;BME280;2210;51.938;8.488;2024-03-23T04:28:33;99681.66;;;6.73;100.00
4392;BME280;2210;51.938;8.488;2024-03-23T04:32:34;99676.28;;;6.67;100.00
4392;BME280;2210;51.938;8.488;2024-03-23T04:36:34;99687.97;;;6.62;100.00
4392;BME280;2210;51.938;8.488;2024-03-23T04:40:41;99687.25;;;6.67;100.00
4392;BME280;2210;51.938;8.488;2024-03-23T04:44:44;99676.38;;;6.60;100.00
4392;BME280;2210;51.938;8.488;2024-03-23T04:48:45;99689.41;;;6.65;100.00
4392;BME280;2210;51.938;8.488;2024-03-23T04:52:45;99693.13;;;6.52;100.00
4392;BME280;2210;51.938;8.488;2024-03-23T04:56:51;99698.03;;;6.50;100.00
4392;BME280;2210;51.938;8.488;2024-03-23T05:00:55;99679.91;;;6.49;100.00
4392;BME280;2210;51.938;8.488;2024-03-23T05:04:58;99631.16;;;6.08;100.00
4392;BME280;2210;51.938;8.488;2024-03-23T05:09:05;99646.34;;;6.23;100.00
4392;BME280;2210;51.938;8.488;2024-03-23T05:13:06;99651.41;;;6.38;100.00
4392;BME280;2210;51.938;8.488;2024-03-23T05:17:13;99648.44;;;6.39;100.00
4392;BME280;2210;51.938;8.488;2024-03-23T05:21:13;99652.47;;;6.37;100.00
4392;BME280;2210;51.938;8.488;2024-03-23T05:25:14;99649.16;;;6.35;100.00
4392;BME280;2210;51.938;8.488;2024-03-23T05:29:22;99651.78;;;6.41;100.00
4392;BME280;2210;51.938;8.488;2024-03-23T05:33:28;99668.13;;;6.48;100.00
4392;BME280;2210;51.938;8.488;2024-03-23T05:37:28;99660.13;;;6.47;100.00
4392;BME280;2210;51.938;8.488;2024-03-23T05:41:34;99660.47;;;6.38;100.00
4392;BME280;2210;51.938;8.488;2024-03-23T05:45:36;99660.94;;;6.35;100.00
4392;BME280;2210;51.938;8.488;2024-03-23T05:49:37;99676.66;;;6.40;100.00
4392;BME280;2210;51.938;8.488;2024-03-23T05:53:37;99667.38;;;6.41;100.00
4392;BME280;2210;51.938;8.488;2024-03-23T05:57:37;99657.72;;;6.38;100.00
4392;BME280;2210;51.938;8.488;2024-03-23T06:01:37;99659.41;;;6.39;100.00
4392;BME280;2210;51.938;8.488;2024-03-23T06:05:39;99663.19;;;6.38;100.00
4392;BME280;2210;51.938;8.488;2024-03-23T06:09:42;99663.09;;;6.45;100.00
4392;BME280;2210;51.938;8.488;2024-03-23T06:13:43;99667.38;;;6.41;100.00
4392;BME280;2210;51.938;8.488;2024-03-23T06:17:52;99674.78;;;6.40;100.00
4392;BME280;2210;51.938;8.488;2024-03-23T06:21:53;99670.34;;;6.39;100.00
4392;BME280;2210;51.938;8.488;2024-03-23T06:25:54;99672.06;;;6.52;100.00
4392;BME280;2210;51.938;8.488;2024-03-23T06:29:54;99675.66;;;6.53;100.00
4392;BME280;2210;51.938;8.488;2024-03-23T06:33:55;99673.22;;;6.45;100.00
4392;BME280;2210;51.938;8.488;2024-03-23T06:37:58;99675.66;;;6.53;100.00
4392;BME280;2210;51.938;8.488;2024-03-23T06:41:58;99671.47;;;6.50;100.00
4392;BME280;2210;51.938;8.488;2024-03-23T06:46:03;99670.31;;;6.58;100.00
4392;BME280;2210;51.938;8.488;2024-03-23T06:50:07;99670.41;;;6.51;100.00
4392;BME280;2210;51.938;8.488;2024-03-23T06:54:10;99671.00;;;6.53;100.00
4392;BME280;2210;51.938;8.488;2024-03-23T06:58:13;99671.47;;;6.50;100.00
4392;BME280;2210;51.938;8.488;2024-03-23T07:02:19;99674.59;;;6.54;100.00
4392;BME280;2210;51.938;8.488;2024-03-23T07:06:20;99681.59;;;6.50;100.00
4392;BME280;2210;51.938;8.488;2024-03-23T07:10:23;99672.19;;;6.57;100.00
4392;BME280;2210;51.938;8.488;2024-03-23T07:14:23;99688.53;;;6.64;100.00
4392;BME280;2210;51.938;8.488;2024-03-23T07:18:33;99686.94;;;6.56;100.00
4392;BME280;2210;51.938;8.488;2024-03-23T07:22:34;99681.22;;;6.46;100.00
4392;BME280;2210;51.938;8.488;2024-03-23T07:26:34;99684.69;;;6.53;100.00
4392;BME280;2210;51.938;8.488;2024-03-23T07:30:35;99678.66;;;6.63;100.00
4392;BME280;2210;51.938;8.488;2024-03-23T07:34:35;99676.66;;;6.70;100.00
4392;BME280;2210;51.938;8.488;2024-03-23T07:38:51;99672.63;;;6.73;100.00
4392;BME280;2210;51.938;8.488;2024-03-23T07:42:51;99687.16;;;6.73;100.00
4392;BME280;2210;51.938;8.488;2024-03-23T07:47:00;99689.31;;;6.83;100.00
4392;BME280;2210;51.938;8.488;2024-03-23T07:51:02;99687.78;;;6.87;100.00
4392;BME280;2210;51.938;8.488;2024-03-23T07:55:12;99679.00;;;6.97;100.00
4392;BME280;2210;51.938;8.488;2024-03-23T07:59:15;99677.13;;;7.09;100.00
4392;BME280;2210;51.938;8.488;2024-03-23T08:03:15;99683.91;;;7.19;100.00
4392;BME280;2210;51.938;8.488;2024-03-23T08:07:19;99679.91;;;7.33;100.00
4392;BME280;2210;51.938;8.488;2024-03-23T08:11:22;99686.59;;;7.61;100.00
4392;BME280;2210;51.938;8.488;2024-03-23T08:15:25;99680.25;;;7.84;100.00
4392;BME280;2210;51.938;8.488;2024-03-23T08:19:28;99678.53;;;8.07;100.00
4392;BME280;2210;51.938;8.488;2024-03-23T08:23:33;99682.63;;;7.81;100.00
4392;BME280;2210;51.938;8.488;2024-03-23T08:27:33;99685.88;;;7.78;100.00
4392;BME280;2210;51.938;8.488;2024-03-23T08:31:40;99682.06;;;7.67;100.00
4392;BME280;2210;51.938;8.488;2024-03-23T08:36:06;99680.34;;;7.89;100.00
4392;BME280;2210;51.938;8.488;2024-03-23T08:40:07;99663.28;;;7.99;100.00
4392;BME280;2210;51.938;8.488;2024-03-23T08:44:08;99671.72;;;8.09;100.00
4392;BME280;2210;51.938;8.488;2024-03-23T08:48:08;99671.63;;;8.04;100.00
4392;BME280;2210;51.938;8.488;2024-03-23T08:52:15;99673.97;;;8.24;100.00
4392;BME280;2210;51.938;8.488;2024-03-23T08:56:15;99673.13;;;8.24;100.00
4392;BME280;2210;51.938;8.488;2024-03-23T09:00:18;99676.28;;;8.04;100.00
4392;BME280;2210;51.938;8.488;2024-03-23T09:04:19;99672.66;;;8.15;100.00
4392;BME280;2210;51.938;8.488;2024-03-23T09:08:19;99668.69;;;8.47;100.00
4392;BME280;2210;51.938;8.488;2024-03-23T09:12:19;99667.44;;;8.83;100.00
4392;BME280;2210;51.938;8.488;2024-03-23T09:16:22;99658.13;;;9.01;100.00
4392;BME280;2210;51.938;8.488;2024-03-23T09:20:23;99670.28;;;9.22;100.00
4392;BME280;2210;51.938;8.488;2024-03-23T09:24:23;99660.31;;;8.70;100.00
4392;BME280;2210;51.938;8.488;2024-03-23T09:28:23;99676.69;;;8.36;100.00
4392;BME280;2210;51.938;8.488;2024-03-23T09:32:27;99670.28;;;8.07;100.00
4392;BME280;2210;51.938;8.488;2024-03-23T09:36:27;99676.28;;;7.92;100.00
4392;BME280;2210;51.938;8.488;2024-03-23T09:40:27;99681.41;;;8.00;100.00
4392;BME280;2210;51.938;8.488;2024-03-23T09:44:31;99680.84;;;7.74;100.00
4392;BME280;2210;51.938;8.488;2024-03-23T09:48:31;99672.97;;;7.78;100.00
4392;BME280;2210;51.938;8.488;2024-03-23T09:52:31;99663.50;;;8.09;100.00
4392;BME280;2210;51.938;8.488;2024-03-23T09:56:37;99656.72;;;8.00;100.00
4392;BME280;2210;51.938;8.488;2024-03-23T10:00:38;99660.97;;;8.20;100.00
4392;BME280;2210;51.938;8.488;2024-03-23T10:04:41;99652.56;;;8.38;100.00
4392;BME280;2210;51.938;8.488;2024-03-23T10:08:47;99651.50;;;8.68;100.00
4392;BME280;2210;51.938;8.488;2024-03-23T10:12:54;99649.53;;;8.52;97.24
4392;BME280;2210;51.938;8.488;2024-03-23T10:16:54;99641.78;;;8.49;100.00
4392;BME280;2210;51.938;8.488;2024-03-23T10:21:14;99648.16;;;8.66;95.41
4392;BME280;2210;51.938;8.488;2024-03-23T10:25:22;99642.28;;;8.46;94.51
4392;BME280;2210;51.938;8.488;2024-03-23T10:29:26;99638.22;;;8.36;94.36
4392;BME280;2210;51.938;8.488;2024-03-23T10:33:31;99632.34;;;8.73;98.08
4392;BME280;2210;51.938;8.488;2024-03-23T10:37:31;99645.59;;;8.48;95.82
4392;BME280;2210;51.938;8.488;2024-03-23T10:41:32;99654.66;;;8.19;93.06
4392;BME280;2210;51.938;8.488;2024-03-23T10:45:36;99651.59;;;7.92;88.30
4392;BME280;2210;51.938;8.488;2024-03-23T10:49:36;99654.72;;;8.24;94.26
4392;BME280;2210;51.938;8.488;2024-03-23T10:53:39;99643.31;;;8.44;88.53
4392;BME280;2210;51.938;8.488;2024-03-23T10:57:51;99650.84;;;8.78;87.37
4392;BME280;2210;51.938;8.488;2024-03-23T11:01:57;99643.06;;;9.04;85.33
4392;BME280;2210;51.938;8.488;2024-03-23T11:05:59;99643.38;;;9.07;83.37
4392;BME280;2210;51.938;8.488;2024-03-23T11:14:25;99632.22;;;9.14;86.90
4392;BME280;2210;51.938;8.488;2024-03-23T11:18:25;99635.78;;;8.81;82.17
4392;BME280;2210;51.938;8.488;2024-03-23T11:22:48;99637.97;;;9.13;83.85
4392;BME280;2210;51.938;8.488;2024-03-23T11:26:51;99633.69;;;9.56;84.81
4392;BME280;2210;51.938;8.488;2024-03-23T11:30:51;99627.19;;;10.06;84.02
4392;BME280;2210;51.938;8.488;2024-03-23T11:35:00;99620.66;;;10.12;80.09
4392;BME280;2210;51.938;8.488;2024-03-23T11:39:12;99624.03;;;10.37;79.66
4392;BME280;2210;51.938;8.488;2024-03-23T11:43:14;99619.25;;;10.54;77.52
4392;BME280;2210;51.938;8.488;2024-03-23T11:47:24;99613.69;;;10.05;78.03
4392;BME280;2210;51.938;8.488;2024-03-23T11:51:31;99611.06;;;10.37;76.81
4392;BME280;2210;51.938;8.488;2024-03-23T11:56:02;99601.75;;;10.71;74.12
4392;BME280;2210;51.938;8.488;2024-03-23T12:00:20;99594.50;;;10.92;74.67
4392;BME280;2210;51.938;8.488;2024-03-23T12:04:29;99587.63;;;10.94;73.80
4392;BME280;2210;51.938;8.488;2024-03-23T12:08:31;99589.16;;;11.12;72.58
4392;BME280;2210;51.938;8.488;2024-03-23T12:12:35;99585.72;;;10.35;68.42
4392;BME280;2210;51.938;8.488;2024-03-23T12:16:36;99584.69;;;9.97;72.96
4392;BME280;2210;51.938;8.488;2024-03-23T12:20:37;99591.41;;;9.62;72.57
4392;BME280;2210;51.938;8.488;2024-03-23T12:24:38;99610.13;;;9.26;74.44
4392;BME280;2210;51.938;8.488;2024-03-23T12:28:48;99653.81;;;8.19;80.13
4392;BME280;2210;51.938;8.488;2024-03-23T12:32:54;99653.69;;;7.61;85.25
4392;BME280;2210;51.938;8.488;2024-03-23T12:37:04;99653.09;;;7.35;88.07
4392;BME280;2210;51.938;8.488;2024-03-23T12:41:06;99652.59;;;7.74;92.18
4392;BME280;2210;51.938;8.488;2024-03-23T12:45:06;99642.66;;;7.97;91.22
4392;BME280;2210;51.938;8.488;2024-03-23T12:49:07;99644.09;;;7.99;89.69
4392;BME280;2210;51.938;8.488;2024-03-23T12:53:07;99648.03;;;8.32;89.30
4392;BME280;2210;51.938;8.488;2024-03-23T12:57:10;99626.53;;;8.87;85.99
4392;BME280;2210;51.938;8.488;2024-03-23T13:01:26;99627.69;;;9.25;82.03
4392;BME280;2210;51.938;8.488;2024-03-23T13:05:26;99625.22;;;9.40;78.91
4392;BME280;2210;51.938;8.488;2024-03-23T13:09:29;99622.84;;;9.66;75.92
4392;BME280;2210;51.938;8.488;2024-03-23T13:13:33;99634.94;;;9.48;71.44
4392;BME280;2210;51.938;8.488;2024-03-23T13:17:36;99631.91;;;9.10;71.71
4392;BME280;2210;51.938;8.488;2024-03-23T13:21:36;99631.97;;;9.16;71.29
4392;BME280;2210;51.938;8.488;2024-03-23T13:25:40;99643.38;;;9.41;72.31
4392;BME280;2210;51.938;8.488;2024-03-23T13:29:46;99640.13;;;9.10;75.44
4392;BME280;2210;51.938;8.488;2024-03-23T13:33:50;99644.56;;;9.11;77.33
4392;BME280;2210;51.938;8.488;2024-03-23T13:37:50;99676.69;;;8.36;78.62
4392;BME280;2210;51.938;8.488;2024-03-23T13:41:50;99678.34;;;7.14;86.62
4392;BME280;2210;51.938;8.488;2024-03-23T13:45:58;99652.47;;;7.09;90.39
4392;BME280;2210;51.938;8.488;2024-03-23T13:49:59;99648.31;;;7.42;88.04
4392;BME280;2210;51.938;8.488;2024-03-23T13:53:59;99652.75;;;8.08;87.39
4392;BME280;2210;51.938;8.488;2024-03-23T13:58:04;99641.22;;;8.35;81.91
4392;BME280;2210;51.938;8.488;2024-03-23T14:02:04;99624.19;;;8.62;83.89
4392;BME280;2210;51.938;8.488;2024-03-23T14:06:04;99629.44;;;8.80;83.66
4392;BME280;2210;51.938;8.488;2024-03-23T14:10:06;99624.50;;;8.65;84.37
4392;BME280;2210;51.938;8.488;2024-03-23T14:14:07;99624.09;;;8.56;85.09
4392;BME280;2210;51.938;8.488;2024-03-23T14:18:08;99618.25;;;8.53;86.64
4392;BME280;2210;51.938;8.488;2024-03-23T14:22:08;99622.91;;;8.40;87.28
4392;BME280;2210;51.938;8.488;2024-03-23T14:26:08;99638.72;;;8.33;88.05
4392;BME280;2210;51.938;8.488;2024-03-23T14:30:09;99667.09;;;8.10;85.73
4392;BME280;2210;51.938;8.488;2024-03-23T14:34:09;99702.44;;;7.59;90.60
4392;BME280;2210;51.938;8.488;2024-03-23T14:38:10;99703.84;;;7.26;97.07
4392;BME280;2210;51.938;8.488;2024-03-23T14:42:10;99705.19;;;6.93;100.00
4392;BME280;2210;51.938;8.488;2024-03-23T14:46:12;99681.25;;;6.88;100.00
4392;BME280;2210;51.938;8.488;2024-03-23T14:50:13;99673.69;;;6.41;100.00
4392;BME280;2210;51.938;8.488;2024-03-23T14:54:15;99724.22;;;6.27;100.00
4392;BME280;2210;51.938;8.488;2024-03-23T14:58:15;99708.16;;;6.12;100.00
4392;BME280;2210;51.938;8.488;2024-03-23T15:02:16;99708.44;;;5.85;100.00
4392;BME280;2210;51.938;8.488;2024-03-23T15:06:16;99673.03;;;5.90;100.00
4392;BME280;2210;51.938;8.488;2024-03-23T15:10:16;99658.28;;;6.29;100.00
4392;BME280;2210;51.938;8.488;2024-03-23T15:14:16;99650.53;;;6.26;100.00
4392;BME280;2210;51.938;8.488;2024-03-23T15:18:17;99641.06;;;6.70;100.00
4392;BME280;2210;51.938;8.488;2024-03-23T15:22:25;99647.06;;;6.91;100.00
4392;BME280;2210;51.938;8.488;2024-03-23T15:26:25;99639.31;;;7.00;100.00
4392;BME280;2210;51.938;8.488;2024-03-23T15:30:26;99642.06;;;7.00;100.00
4392;BME280;2210;51.938;8.488;2024-03-23T15:34:26;99627.19;;;7.07;100.00
4392;BME280;2210;51.938;8.488;2024-03-23T15:38:27;99626.59;;;7.05;100.00
4392;BME280;2210;51.938;8.488;2024-03-23T15:42:29;99606.09;;;7.08;100.00
4392;BME280;2210;51.938;8.488;2024-03-23T15:46:29;99607.16;;;7.19;100.00
4392;BME280;2210;51.938;8.488;2024-03-23T15:50:29;99599.06;;;7.24;100.00
4392;BME280;2210;51.938;8.488;2024-03-23T15:54:30;99593.34;;;7.25;100.00
4392;BME280;2210;51.938;8.488;2024-03-23T15:58:31;99585.25;;;7.42;100.00
4392;BME280;2210;51.938;8.488;2024-03-23T16:02:32;99583.69;;;7.58;100.00
4392;BME280;2210;51.938;8.488;2024-03-23T16:06:32;99569.47;;;7.62;100.00
4392;BME280;2210;51.938;8.488;2024-03-23T16:10:32;99571.47;;;7.66;100.00
4392;BME280;2210;51.938;8.488;2024-03-23T16:14:33;99574.00;;;7.56;100.00
4392;BME280;2210;51.938;8.488;2024-03-23T16:18:37;99562.94;;;7.51;100.00
4392;BME280;2210;51.938;8.488;2024-03-23T16:22:39;99562.94;;;7.39;100.00
4392;BME280;2210;51.938;8.488;2024-03-23T16:26:40;99568.41;;;7.39;100.00
4392;BME280;2210;51.938;8.488;2024-03-23T16:30:40;99554.13;;;7.37;100.00
4392;BME280;2210;51.938;8.488;2024-03-23T16:34:41;99565.22;;;7.42;100.00
4392;BME280;2210;51.938;8.488;2024-03-23T16:38:41;99565.66;;;7.51;97.45
4392;BME280;2210;51.938;8.488;2024-03-23T16:42:42;99571.88;;;7.46;93.98
4392;BME280;2210;51.938;8.488;2024-03-23T16:46:42;99597.16;;;7.36;92.08
4392;BME280;2210;51.938;8.488;2024-03-23T16:50:44;99591.09;;;7.22;90.15
4392;BME280;2210;51.938;8.488;2024-03-23T16:54:44;99590.84;;;7.12;89.25
4392;BME280;2210;51.938;8.488;2024-03-23T16:58:44;99585.00;;;7.08;87.33
4392;BME280;2210;51.938;8.488;2024-03-23T17:02:49;99586.19;;;7.13;89.50
4392;BME280;2210;51.938;8.488;2024-03-23T17:06:49;99582.41;;;7.14;90.17
4392;BME280;2210;51.938;8.488;2024-03-23T17:10:50;99590.38;;;7.15;93.35
4392;BME280;2210;51.938;8.488;2024-03-23T17:14:53;99584.06;;;7.03;91.85
4392;BME280;2210;51.938;8.488;2024-03-23T17:18:56;99579.50;;;6.97;96.15
4392;BME280;2210;51.938;8.488;2024-03-23T17:22:57;99576.88;;;6.90;93.28
4392;BME280;2210;51.938;8.488;2024-03-23T17:26:57;99568.31;;;6.86;97.83
4392;BME280;2210;51.938;8.488;2024-03-23T17:30:57;99579.50;;;6.85;97.57
4392;BME280;2210;51.938;8.488;2024-03-23T17:34:58;99585.66;;;6.68;100.00
4392;BME280;2210;51.938;8.488;2024-03-23T17:38:58;99580.94;;;6.75;100.00
4392;BME280;2210;51.938;8.488;2024-03-23T17:42:58;99584.59;;;6.69;100.00
4392;BME280;2210;51.938;8.488;2024-03-23T17:46:58;99579.00;;;6.64;100.00
4392;BME280;2210;51.938;8.488;2024-03-23T17:51:03;99579.72;;;6.71;93.63
4392;BME280;2210;51.938;8.488;2024-03-23T17:55:03;99583.44;;;6.77;97.58
4392;BME280;2210;51.938;8.488;2024-03-23T17:59:04;99580.66;;;6.65;95.38
4392;BME280;2210;51.938;8.488;2024-03-23T18:03:04;99586.28;;;6.70;100.00
4392;BME280;2210;51.938;8.488;2024-03-23T18:07:05;99589.13;;;6.64;100.00
4392;BME280;2210;51.938;8.488;2024-03-23T18:11:09;99628.38;;;6.57;100.00
4392;BME280;2210;51.938;8.488;2024-03-23T18:15:09;99637.84;;;6.13;100.00
4392;BME280;2210;51.938;8.488;2024-03-23T18:19:10;99643.16;;;5.89;100.00
4392;BME280;2210;51.938;8.488;2024-03-23T18:23:10;99635.19;;;5.69;100.00
4392;BME280;2210;51.938;8.488;2024-03-23T18:27:16;99627.28;;;5.61;100.00
4392;BME280;2210;51.938;8.488;2024-03-23T18:31:17;99619.91;;;5.61;100.00
4392;BME280;2210;51.938;8.488;2024-03-23T18:35:17;99625.38;;;5.61;100.00
4392;BME280;2210;51.938;8.488;2024-03-23T18:39:17;99633.22;;;5.57;100.00
4392;BME280;2210;51.938;8.488;2024-03-23T18:43:18;99619.44;;;5.46;100.00
4392;BME280;2210;51.938;8.488;2024-03-23T18:47:18;99621.38;;;5.38;100.00
4392;BME280;2210;51.938;8.488;2024-03-23T18:51:18;99617.84;;;5.38;100.00
4392;BME280;2210;51.938;8.488;2024-03-23T18:55:19;99616.38;;;5.35;100.00
4392;BME280;2210;51.938;8.488;2024-03-23T18:59:21;99610.56;;;5.32;100.00
4392;BME280;2210;51.938;8.488;2024-03-23T19:03:21;99612.91;;;5.28;100.00
4392;BME280;2210;51.938;8.488;2024-03-23T19:07:22;99615.41;;;5.30;100.00
4392;BME280;2210;51.938;8.488;2024-03-23T19:11:22;99623.25;;;5.19;100.00
4392;BME280;2210;51.938;8.488;2024-03-23T19:15:22;99615.41;;;5.30;100.00
4392;BME280;2210;51.938;8.488;2024-03-23T19:19:23;99623.81;;;5.28;100.00
4392;BME280;2210;51.938;8.488;2024-03-23T19:23:24;99631.63;;;5.24;100.00
4392;BME280;2210;51.938;8.488;2024-03-23T19:27:31;99627.50;;;5.15;100.00
4392;BME280;2210;51.938;8.488;2024-03-23T19:31:33;99619.47;;;5.20;100.00
4392;BME280;2210;51.938;8.488;2024-03-23T19:35:43;99622.88;;;5.16;100.00
4392;BME280;2210;51.938;8.488;2024-03-23T19:39:43;99628.66;;;5.26;100.00
4392;BME280;2210;51.938;8.488;2024-03-23T19:43:43;99622.53;;;5.05;100.00
4392;BME280;2210;51.938;8.488;2024-03-23T19:47:47;99626.03;;;5.13;100.00
4392;BME280;2210;51.938;8.488;2024-03-23T19:51:48;99625.63;;;4.90;100.00
4392;BME280;2210;51.938;8.488;2024-03-23T19:55:58;99618.75;;;4.81;100.00
4392;BME280;2210;51.938;8.488;2024-03-23T20:00:00;99614.84;;;4.70;100.00
4392;BME280;2210;51.938;8.488;2024-03-23T20:04:01;99618.66;;;4.69;100.00
4392;BME280;2210;51.938;8.488;2024-03-23T20:08:01;99613.59;;;4.66;100.00
4392;BME280;2210;51.938;8.488;2024-03-23T20:12:01;99609.47;;;4.57;100.00
4392;BME280;2210;51.938;8.488;2024-03-23T20:16:02;99607.38;;;4.59;100.00
4392;BME280;2210;51.938;8.488;2024-03-23T20:20:02;99610.84;;;4.41;100.00
4392;BME280;2210;51.938;8.488;2024-03-23T20:24:03;99610.19;;;4.46;100.00
4392;BME280;2210;51.938;8.488;2024-03-23T20:28:04;99597.31;;;4.53;100.00
4392;BME280;2210;51.938;8.488;2024-03-23T20:32:04;99592.31;;;4.50;100.00
4392;BME280;2210;51.938;8.488;2024-03-23T20:36:10;99600.78;;;4.42;100.00
4392;BME280;2210;51.938;8.488;2024-03-23T20:40:11;99590.91;;;4.41;100.00
4392;BME280;2210;51.938;8.488;2024-03-23T20:44:12;99584.56;;;4.47;100.00
4392;BME280;2210;51.938;8.488;2024-03-23T20:48:12;99581.00;;;4.46;100.00
4392;BME280;2210;51.938;8.488;2024-03-23T20:52:13;99588.13;;;4.47;100.00
4392;BME280;2210;51.938;8.488;2024-03-23T20:56:22;99588.53;;;4.51;100.00
4392;BME280;2210;51.938;8.488;2024-03-23T21:00:22;99582.41;;;4.55;100.00
4392;BME280;2210;51.938;8.488;2024-03-23T21:04:26;99585.19;;;4.49;100.00
4392;BME280;2210;51.938;8.488;2024-03-23T21:08:30;99583.69;;;4.53;100.00
4392;BME280;2210;51.938;8.488;2024-03-23T21:12:30;99582.03;;;4.52;100.00
4392;BME280;2210;51.938;8.488;2024-03-23T21:16:34;99589.75;;;4.55;100.00
4392;BME280;2210;51.938;8.488;2024-03-23T21:20:34;99579.03;;;4.60;100.00
4392;BME280;2210;51.938;8.488;2024-03-23T21:24:35;99580.53;;;4.56;100.00
4392;BME280;2210;51.938;8.488;2024-03-23T21:28:35;99575.66;;;4.58;100.00
4392;BME280;2210;51.938;8.488;2024-03-23T21:32:35;99565.78;;;4.57;100.00
4392;BME280;2210;51.938;8.488;2024-03-23T21:36:36;99565.19;;;4.55;100.00
4392;BME280;2210;51.938;8.488;2024-03-23T21:40:36;99566.25;;;4.54;100.00
4392;BME280;2210;51.938;8.488;2024-03-23T21:44:37;99554.97;;;4.50;100.00
4392;BME280;2210;51.938;8.488;2024-03-23T21:48:37;99560.00;;;4.47;100.00
4392;BME280;2210;51.938;8.488;2024-03-23T21:52:38;99553.81;;;4.58;100.00
4392;BME280;2210;51.938;8.488;2024-03-23T21:56:38;99558.00;;;4.61;100.00
4392;BME280;2210;51.938;8.488;2024-03-23T22:00:39;99554.88;;;4.57;100.00
4392;BME280;2210;51.938;8.488;2024-03-23T22:04:39;99549.88;;;4.54;100.00
4392;BME280;2210;51.938;8.488;2024-03-23T22:08:39;99546.91;;;4.55;100.00
4392;BME280;2210;51.938;8.488;2024-03-23T22:12:40;99529.34;;;4.45;100.00
4392;BME280;2210;51.938;8.488;2024-03-23T22:16:40;99533.53;;;4.47;100.00
4392;BME280;2210;51.938;8.488;2024-03-23T22:20:41;99528.00;;;4.35;100.00
4392;BME280;2210;51.938;8.488;2024-03-23T22:24:41;99512.16;;;4.44;100.00
4392;BME280;2210;51.938;8.488;2024-03-23T22:28:41;99513.44;;;4.42;100.00
4392;BME280;2210;51.938;8.488;2024-03-23T22:32:45;99510.53;;;4.36;100.00
4392;BME280;2210;51.938;8.488;2024-03-23T22:36:46;99507.25;;;4.28;100.00
4392;BME280;2210;51.938;8.488;2024-03-23T22:40:53;99504.13;;;4.24;100.00
4392;BME280;2210;51.938;8.488;2024-03-23T22:44:54;99503.06;;;4.25;100.00
4392;BME280;2210;51.938;8.488;2024-03-23T22:48:57;99492.63;;;4.22;100.00
4392;BME280;2210;51.938;8.488;2024-03-23T22:52:57;99484.19;;;4.24;100.00
4392;BME280;2210;51.938;8.488;2024-03-23T22:56:57;99480.47;;;4.18;100.00
4392;BME280;2210;51.938;8.488;2024-03-23T23:00:58;99477.13;;;4.16;100.00
4392;BME280;2210;51.938;8.488;2024-03-23T23:04:58;99468.94;;;4.16;100.00